Weather observations for the past three days for
El Dorado Captain Jack Thomas Airport
Metric (Imperial)
Date Time (cdt) Wind (kph) Vis. (km) Weather Sky Cond. Temperature (ºC) Relative Humidity Wind Chill (°C) Heat Index (°C) Pressure Precipitation (cm)
Air Dwpt 6 hour altimeter (cm) sea level (mb) 1 hr 3 hr 6 hr
Max. Min.
04 18:55 S 22 16.09 Fair CLR 26 12 42% 26 75.16 0.0
04 18:35 S 22 G 30 16.09 Fair CLR 26 12 42% 26 75.18 0.0
04 18:15 S 20 16.09 Fair CLR 26 12 42% 26 75.18 0.0
04 17:55 S 20 G 33 16.09 Fair CLR 27 12 39% 27 75.16 0.0
04 17:35 S 24 G 30 16.09 Fair CLR 27 12 39% 27 75.16 0.0
04 17:15 S 22 G 33 16.09 Fair CLR 28 12 37% 27 75.16 0.0
04 16:55 S 28 G 33 16.09 Fair CLR 28 12 37% 27 75.16 0.0
04 16:35 S 24 G 33 16.09 Fair CLR 28 11 35% 27 75.18 0.0
04 16:15 S 22 16.09 Fair CLR 28 11 35% 27 75.18 0.0
04 15:55 S 20 G 30 16.09 Fair CLR 29 12 35% 28 75.18 0.0
04 15:35 S 20 G 26 16.09 Fair CLR 30 11 31% 29 75.21 0.0
04 15:15 SW 17 16.09 Fair CLR 30 12 33% 29 75.23 0.0
04 14:55 SW 13 16.09 Fair CLR 28 11 35% 27 75.26 0.0
04 14:35 SW 17 16.09 Fair CLR 29 11 33% 28 75.29 0.0
04 14:15 SW 17 G 28 16.09 Fair CLR 29 11 33% 28 75.31 0.0
04 13:55 SW 13 G 30 16.09 Fair CLR 28 11 35% 27 75.31 0.0
04 13:35 S 19 16.09 Fair CLR 28 11 35% 27 75.31 0.0
04 13:15 SW 15 16.09 Fair CLR 27 11 37% 27 75.34 0.0
04 12:55 SW 15 16.09 Fair CLR 27 11 37% 27 75.34 0.0
04 12:35 SW 19 16.09 Fair CLR 26 10 37% 26 75.36 0.0
04 12:15 SW 19 16.09 Fair CLR 27 10 34% 27 75.36 0.0
04 11:55 SW 17 16.09 Fair CLR 25 11 42% 26 75.36 0.0
04 11:35 SW 24 16.09 Fair CLR 24 10 41% 25 75.39 0.0
04 11:15 SW 22 16.09 Fair CLR 24 10 41% 25 75.36 0.0
04 10:55 SW 28 G 39 16.09 Fair CLR 23 9 41% 75.36 0.0
04 10:35 SW 22 G 37 16.09 Fair CLR 23 10 44% 75.34 0.0
04 10:15 SW 30 G 37 16.09 Fair CLR 23 9 41% 75.36 0.0
04 09:55 SW 26 G 31 16.09 Fair CLR 21 9 46% 75.36 0.0
04 09:35 SW 26 G 35 16.09 Fair CLR 21 8 43% 75.36 0.0
04 09:15 SW 31 G 39 16.09 Fair CLR 21 8 43% 75.39 0.0
04 08:55 SW 28 G 37 16.09 Fair CLR 20 8 46% 75.39 0.0
04 08:35 SW 31 G 39 16.09 Fair CLR 20 8 46% 75.39 0.0
04 08:15 SW 28 G 41 16.09 Fair CLR 20 7 43% 75.39 0.0
04 07:55 SW 30 G 41 16.09 Fair CLR 19 7 46% 75.39 0.0
04 07:35 SW 26 G 39 16.09 Fair CLR 18 7 49% 75.36 0.0
04 07:15 S 31 16.09 Fair CLR 18 7 49% 75.36 0.0
04 06:55 SW 28 G 37 16.09 Fair CLR 18 7 49% 75.36 0.0
04 06:35 SW 26 G 35 16.09 Fair CLR 18 7 49% 75.36 0.0
04 06:15 SW 28 G 39 16.09 Fair CLR 18 7 49% 75.39 0.0
04 05:55 SW 31 G 39 16.09 Fair CLR 18 6 46% 75.39 0.0
04 05:35 SW 28 G 39 16.09 Fair CLR 19 6 43% 75.41 0.0
04 05:15 SW 30 G 41 16.09 Fair CLR 19 6 43% 75.41 0.0
04 04:55 SW 28 G 37 16.09 Fair CLR 19 6 43% 75.44 0.0
04 04:35 SW 30 G 39 16.09 Fair CLR 20 6 40% 75.46 0.0
04 04:15 SW 31 G 41 16.09 Fair CLR 20 6 40% 75.46 0.0
04 03:55 SW 31 G 43 16.09 Fair CLR 20 5 38% 75.46 0.0
04 03:35 SW 31 G 43 16.09 Fair CLR 20 5 38% 75.49 0.0
04 03:15 SW 30 G 39 16.09 Fair CLR 20 5 38% 75.49 0.0
04 02:55 S 30 G 37 16.09 Fair CLR 20 6 40% 75.49 0.0
04 02:35 S 31 G 41 16.09 Fair CLR 20 6 40% 75.54 0.0
04 02:15 S 24 G 35 16.09 Fair CLR 20 6 40% 75.54 0.0
04 01:55 S 30 G 41 16.09 Fair CLR 20 6 40% 75.57 0.0
04 01:35 S 26 G 41 16.09 Fair CLR 20 6 40% 75.59 0.0
04 01:15 SW 30 G 44 16.09 Fair CLR 21 5 35% 75.62 0.0
04 00:55 S 30 G 41 16.09 Fair CLR 21 5 35% 75.62 0.0
04 00:35 S 28 G 46 16.09 Fair CLR 21 5 35% 75.62 0.0
04 00:15 S 30 G 37 16.09 Fair CLR 22 5 33% 75.62 0.0
03 23:55 S 30 G 39 16.09 Fair CLR 22 4 31% 75.62 0.0
03 23:35 S 26 G 39 16.09 Fair CLR 22 4 31% 75.62 0.0
03 23:15 S 24 G 35 16.09 Fair CLR 22 4 31% 75.62 0.0
03 22:55 S 26 G 35 16.09 Fair CLR 22 5 33% 75.64 0.0
03 22:35 S 28 G 37 16.09 Fair CLR 22 5 33% 75.64 0.0
03 22:15 S 22 16.09 Fair CLR 22 5 33% 75.64 0.0
03 21:55 S 20 16.09 Fair CLR 22 5 33% 75.62 0.0
03 21:35 S 20 16.09 Fair CLR 22 5 33% 75.62 0.0
03 21:15 S 19 16.09 Fair CLR 22 5 33% 75.62 0.0
03 20:55 S 17 16.09 Fair CLR 22 5 33% 75.62 0.0
03 20:35 S 15 16.09 Fair CLR 22 3 29% 75.62 0.0
03 20:15 S 13 16.09 Fair CLR 23 2 25% 75.62 0.0
03 19:55 S 19 16.09 Fair CLR 26 0 18% 25 75.62 0.0
03 19:35 SW 20 G 30 16.09 Fair CLR 26 0 18% 25 75.62 0.0
03 19:15 SW 19 16.09 Fair CLR 27 1 18% 26 75.64 0.0
03 18:55 SW 26 G 33 16.09 Fair CLR 28 0 16% 27 75.64 0.0
03 18:35 SW 22 16.09 Fair CLR 29 1 16% 27 75.67 0.0
03 18:15 SW 30 G 35 16.09 Fair CLR 29 0 15% 27 75.67 0.0
03 17:55 SW 30 G 37 16.09 Fair CLR 29 0 15% 27 75.67 0.0
03 17:35 SW 22 G 35 16.09 Fair CLR 29 0 15% 27 75.67 0.0
03 17:15 SW 28 G 41 16.09 Fair CLR 30 0 14% 28 75.69 0.0
03 16:55 SW 30 G 39 16.09 Fair CLR 30 -1 13% 28 75.74 0.0
03 16:35 SW 22 G 31 16.09 Fair CLR 29 0 15% 27 75.77 0.0
03 16:15 SW 24 16.09 Fair CLR 29 -1 14% 27 75.79 0.0
03 15:55 SW 30 G 37 16.09 Fair CLR 30 0 14% 28 75.79 0.0
03 15:35 SW 28 G 37 16.09 Fair CLR 29 0 15% 27 75.84 0.0
03 15:15 SW 31 G 39 16.09 Fair CLR 29 -1 14% 27 75.84 0.0
03 14:55 SW 20 G 41 16.09 Fair CLR 30 0 14% 28 75.87 0.0
03 14:35 SW 26 G 37 16.09 Fair CLR 30 2 17% 28 75.9 0.0
03 13:55 SW 30 G 44 16.09 Fair CLR 29 3 19% 27 75.92 0.0
03 13:35 W 26 G 35 16.09 Fair CLR 28 4 21% 27 75.97 0.0
03 13:15 W 26 16.09 Fair CLR 28 5 23% 27 76 0.0
03 12:55 SW 20 G 30 16.09 Fair CLR 27 5 24% 26 76.02 0.0
03 12:35 SW 24 G 35 16.09 Fair CLR 27 6 26% 26 76.05 0.0
03 12:15 W 22 G 28 16.09 Fair CLR 26 7 30% 26 76.07 0.0
03 11:55 SW 22 16.09 Fair CLR 25 7 32% 25 76.1 0.0
03 11:35 SW 20 G 31 16.09 Fair CLR 24 6 31% 25 76.1 0.0
03 11:15 SW 20 16.09 Fair CLR 23 8 38% 76.12 0.0
03 10:55 SW 20 G 30 16.09 Fair CLR 22 7 38% 76.12 0.0
03 10:35 SW 24 G 31 16.09 Fair CLR 21 7 40% 76.12 0.0
03 10:15 SW 26 G 33 16.09 Fair CLR 20 7 43% 76.12 0.0
03 09:55 S 28 G 33 16.09 Fair CLR 19 7 46% 76.15 0.0
03 09:35 SW 28 G 39 16.09 Fair CLR 18 6 46% 76.17 0.0
03 09:15 SW 26 G 31 16.09 Fair CLR 17 6 49% 76.17 0.0
03 08:55 SW 24 G 31 16.09 Fair CLR 16 6 52% 76.2 0.0
03 08:35 SW 20 G 28 16.09 Fair CLR 15 6 55% 76.2 0.0
03 08:15 S 19 16.09 Fair CLR 14 5 55% 76.2 0.0
03 07:55 S 20 16.09 Fair CLR 13 5 59% 76.2 0.0
03 07:15 S 11 16.09 Fair CLR 11 5 67% 76.2 0.0
03 06:55 S 13 16.09 Fair CLR 10 4 67% 8 76.2 0.0
03 06:15 S 15 16.09 Fair CLR 10 3 62% 8 76.2 0.0
03 05:55 S 15 16.09 Fair CLR 10 3 62% 8 76.2 0.0
03 05:35 S 15 16.09 Fair CLR 10 3 62% 8 76.23 0.0
03 05:15 S 15 16.09 Fair CLR 10 3 62% 8 76.23 0.0
03 04:55 S 17 16.09 Fair CLR 10 3 62% 8 76.25 0.0
03 04:35 S 15 16.09 Fair CLR 10 3 62% 8 76.28 0.0
03 04:15 S 15 16.09 Fair CLR 10 3 62% 8 76.28 0.0
03 03:55 S 13 16.09 Fair CLR 9 3 66% 7 76.28 0.0
03 03:35 S 13 16.09 Fair CLR 8 2 66% 6 76.3 0.0
03 03:15 S 13 16.09 Fair CLR 8 2 66% 6 76.3 0.0
03 02:55 S 11 16.09 Fair CLR 8 2 66% 6 76.3 0.0
03 02:35 S 11 16.09 Fair CLR 8 2 66% 6 76.33 0.0
03 02:15 S 9 16.09 Fair CLR 8 2 66% 7 76.33 0.0
03 01:55 S 13 16.09 Fair CLR 9 2 62% 7 76.35 0.0
03 01:35 SE 11 16.09 Fair CLR 9 2 62% 8 76.38 0.0
03 01:15 SE 13 16.09 Fair CLR 10 1 54% 8 76.38 0.0
03 00:55 SE 13 16.09 Fair CLR 10 1 54% 8 76.4 0.0
03 00:35 SE 11 16.09 Fair CLR 9 1 58% 8 76.4 0.0
03 00:15 SE 9 16.09 Fair CLR 10 1 54% 9 76.4 0.0
02 23:55 SE 9 16.09 Fair CLR 10 1 54% 9 76.4 0.0
02 23:35 SE 9 16.09 Fair CLR 10 1 54% 9 76.43 0.0
02 23:15 SE 11 16.09 Fair CLR 11 1 50% 76.4 0.0
02 22:55 SE 9 16.09 Fair CLR 11 1 50% 76.4 0.0
02 22:35 SE 11 16.09 Fair CLR 12 1 47% 76.43 0.0
02 22:15 SE 11 16.09 Fair CLR 12 1 47% 76.4 0.0
02 21:55 SE 9 16.09 Fair CLR 12 1 47% 76.4 0.0
02 21:35 SE 9 16.09 Fair CLR 12 1 47% 76.4 0.0
02 21:15 SE 11 16.09 Fair CLR 12 1 47% 76.4 0.0
02 20:55 SE 9 16.09 Fair CLR 13 1 44% 76.4 0.0
02 20:35 E 7 16.09 Fair CLR 15 1 39% 76.4 0.0
02 20:15 SE 6 16.09 Fair CLR 14 2 44% 76.4 0.0
02 19:55 E 7 16.09 Fair CLR 17 2 37% 76.4 0.0
02 19:35 Calm 16.09 Fair CLR 18 0 30% 76.4 0.0
02 19:15 Calm 16.09 Fair CLR 19 0 28% 76.4 0.0
02 18:55 Calm 16.09 Fair CLR 20 -3 21% 76.4 0.0
02 18:35 Calm 16.09 Fair CLR 20 -2 23% 76.43 0.0
02 18:15 Calm 16.09 Fair CLR 20 -2 23% 76.43 0.0
02 17:55 W 11 16.09 Fair CLR 20 -1 24% 76.43 0.0
02 17:35 Calm 16.09 Fair CLR 20 -1 24% 76.43 0.0
02 17:15 Calm 16.09 Fair CLR 20 -1 24% 76.45 0.0
02 16:55 S 6 16.09 Fair CLR 20 -1 24% 76.48 0.0
02 16:35 W 7 16.09 Fair CLR 20 -1 24% 76.48 0.0
02 16:15 N 9 16.09 Fair CLR 20 -1 24% 76.5 0.0
02 15:55 N 6 16.09 Fair CLR 20 -1 24% 76.53 0.0
02 15:35 NW 7 G 28 16.09 Fair CLR 20 -2 23% 76.56 0.0
02 15:15 N 11 16.09 Fair CLR 20 -1 24% 76.56 0.0
02 14:55 NW 9 16.09 Fair CLR 20 0 26% 76.56 0.0
02 14:35 Calm 16.09 Fair CLR 19 -1 26% 76.58 0.0
02 14:15 NW 11 16.09 Fair CLR 19 0 28% 76.61 0.0
02 13:55 NW 13 16.09 Fair CLR 18 0 30% 76.61 0.0
02 13:35 NW 17 16.09 Fair CLR 18 0 30% 76.63 0.0
02 13:15 Calm 16.09 Fair CLR 18 0 30% 76.63 0.0
02 12:55 NE 11 16.09 Fair CLR 17 -1 30% 76.66 0.0
02 12:35 NE 7 16.09 Fair CLR 17 0 32% 76.66 0.0
02 12:15 N 6 16.09 Fair CLR 16 -2 29% 76.68 0.0
02 11:55 N 15 16.09 Fair CLR 17 -1 30% 76.71 0.0
02 11:35 N 13 16.09 Fair CLR 16 -2 29% 76.71 0.0
02 11:15 N 15 16.09 Fair CLR 16 0 34% 76.71 0.0
02 10:55 NE 7 16.09 Fair CLR 16 -1 31% 76.71 0.0
02 10:35 N 13 16.09 Fair CLR 16 0 34% 76.71 0.0
02 10:15 NE 13 16.09 Fair CLR 15 -1 34% 76.73 0.0
02 09:55 N 11 16.09 Fair CLR 15 0 36% 76.71 0.0
02 09:35 NE 9 16.09 Fair CLR 13 0 41% 76.71 0.0
02 09:15 E 6 16.09 Fair CLR 12 0 44% 76.71 0.0
02 08:55 NE 7 16.09 Fair CLR 11 2 54% 76.71 0.0
02 08:35 NE 9 16.09 Fair CLR 10 1 54% 9 76.71 0.0
02 08:15 NE 11 16.09 Fair CLR 9 2 62% 8 76.68 0.0
02 07:55 NE 6 16.09 Fair CLR 8 3 71% 76.66 0.0
02 07:35 Calm 16.09 Fair CLR 7 3 76% 76.66 0.0
02 07:15 NE 9 16.09 Fair CLR 5 2 81% 3 76.63 0.0
02 06:55 NE 7 16.09 Fair CLR 3 1 87% 1 76.61 0.0
02 06:35 NE 7 16.09 Fair CLR 4 1 81% 2 76.61 0.0
02 06:15 NE 9 16.09 Fair CLR 5 1 76% 3 76.58 0.0
02 05:55 NE 6 16.09 Fair CLR 7 1 66% 76.58 0.0
02 05:35 NE 7 16.09 Fair CLR 7 1 66% 6 76.58 0.0
02 05:15 Calm 16.09 Fair CLR 5 1 76% 76.58 0.0
02 04:55 NE 11 16.09 Fair CLR 6 1 71% 4 76.56 0.0
02 04:35 NE 9 16.09 Fair CLR 6 1 71% 4 76.53 0.0
02 04:15 NE 11 16.09 Fair CLR 6 2 76% 4 76.53 0.0
02 03:55 NE 9 16.09 Fair CLR 7 2 71% 5 76.53 0.0
02 03:35 NE 7 16.09 Fair CLR 7 2 71% 6 76.53 0.0
02 03:15 NE 7 16.09 Fair CLR 8 3 71% 7 76.5 0.0
02 02:55 NE 13 16.09 Fair CLR 10 5 71% 8 76.5 0.0
02 02:35 N 13 16.09 Partly Cloudy SCT065 11 7 77% 76.53 0.0
02 02:15 W 9 16.09 Mostly Cloudy SCT070 SCT075 BKN100 11 7 77% 76.5 0.0
02 01:55 W 13 16.09 Light Rain SCT050 BKN070 OVC090 11 7 77% 76.5 0.0
02 01:35 Calm 16.09 Overcast SCT080 OVC090 12 6 67% 76.5 0.0
02 01:15 S 7 16.09 Mostly Cloudy SCT060 SCT070 BKN090 12 4 58% 76.5 0.0
02 00:55 N 15 16.09 Light Rain BKN065 BKN070 OVC090 12 7 72% 76.53 0.0
02 00:35 W 6 16.09 Overcast OVC090 12 7 72% 76.58 0.0
02 00:15 Calm 16.09 Overcast OVC100 12 6 67% 76.48 0.0
01 23:55 Calm 16.09 Overcast BKN100 OVC110 12 6 67% 76.48 0.0
01 23:35 Calm 16.09 Overcast OVC100 12 6 67% 76.45 0.0
01 23:15 S 6 16.09 Mostly Cloudy BKN100 BKN120 12 6 67% 76.45 0.0
01 22:55 S 6 16.09 Overcast BKN100 OVC120 12 6 67% 76.48 0.0
01 22:35 Calm 16.09 Overcast BKN090 OVC110 13 6 63% 76.48 0.0
01 22:15 S 7 16.09 Overcast OVC090 13 7 67% 76.43 0.0
01 21:55 S 6 16.09 Overcast OVC080 13 6 63% 76.43 0.0
01 21:35 Calm 16.09 Overcast BKN080 OVC110 13 7 67% 76.43 0.0
01 21:15 S 9 16.09 Overcast SCT080 OVC110 13 7 67% 76.4 0.0
01 20:55 Calm 16.09 Overcast OVC080 13 6 63% 76.4 0.0
01 20:35 N 7 16.09 Overcast OVC085 13 6 63% 76.38 0.0
01 20:15 NE 13 16.09 Light Rain OVC080 14 5 55% 76.35 0.0
01 19:55 N 13 16.09 Overcast BKN080 OVC090 14 5 55% 76.38 0.0
01 19:35 N 20 16.09 Light Rain SCT070 OVC080 15 5 51% 76.33 0.0
01 19:15 N 15 16.09 Overcast OVC090 15 4 48% 76.33 0.0
Date Time (cdt) Wind (kph) Vis. (km) Weather Sky Cond. Air Dwpt Max. Min. Relative Humidity Wind Chill (°C) Heat Index (°C) altimeter (cm) sea level (mb) 1 hr 3 hr 6 hr
6 hour
Temperature (ºC) Pressure Precipitation (cm)